sensor_id;sensor_type;location;lat;lon;timestamp;temperature;humidity
36924;DHT22;22841;50.252;18.688;2024-01-30T09:20:19;3.90;25.90
36924;DHT22;22841;50.252;18.688;2024-01-30T09:22:48;4.00;23.50
36924;DHT22;22841;50.252;18.688;2024-01-30T09:25:15;4.10;17.50
36924;DHT22;22841;50.252;18.688;2024-01-30T09:27:41;4.20;17.80
36924;DHT22;22841;50.252;18.688;2024-01-30T09:30:07;4.30;6.80
36924;DHT22;22841;50.252;18.688;2024-01-30T09:32:34;4.30;5.30
36924;DHT22;22841;50.252;18.688;2024-01-30T09:35:00;4.30;1.00
36924;DHT22;22841;50.252;18.688;2024-01-30T09:37:26;4.50;1.00
36924;DHT22;22841;50.252;18.688;2024-01-30T09:39:52;4.50;1.00
36924;DHT22;22841;50.252;18.688;2024-01-30T09:44:50;4.50;1.00
36924;DHT22;22841;50.252;18.688;2024-01-30T09:47:18;4.60;1.00
36924;DHT22;22841;50.252;18.688;2024-01-30T09:49:44;4.70;1.00
36924;DHT22;22841;50.252;18.688;2024-01-30T09:52:11;4.70;1.00
36924;DHT22;22841;50.252;18.688;2024-01-30T09:54:38;5.00;1.00
36924;DHT22;22841;50.252;18.688;2024-01-30T09:57:05;4.90;1.00
36924;DHT22;22841;50.252;18.688;2024-01-30T09:59:31;4.90;1.00
36924;DHT22;22841;50.252;18.688;2024-01-30T10:01:57;5.00;1.00
36924;DHT22;22841;50.252;18.688;2024-01-30T10:04:23;5.00;1.00
36924;DHT22;22841;50.252;18.688;2024-01-30T10:06:51;4.90;1.00
36924;DHT22;22841;50.252;18.688;2024-01-30T10:09:17;5.10;1.00
36924;DHT22;22841;50.252;18.688;2024-01-30T10:11:43;5.10;1.00
36924;DHT22;22841;50.252;18.688;2024-01-30T10:14:09;5.10;1.00
36924;DHT22;22841;50.252;18.688;2024-01-30T10:16:35;5.20;1.00
36924;DHT22;22841;50.252;18.688;2024-01-30T10:19:01;5.20;1.00
36924;DHT22;22841;50.252;18.688;2024-01-30T10:21:30;5.20;1.00
36924;DHT22;22841;50.252;18.688;2024-01-30T10:23:56;5.30;1.00
36924;DHT22;22841;50.252;18.688;2024-01-30T10:26:22;5.20;1.00
36924;DHT22;22841;50.252;18.688;2024-01-30T10:28:48;5.20;1.00
36924;DHT22;22841;50.252;18.688;2024-01-30T10:31:18;5.30;1.00
36924;DHT22;22841;50.252;18.688;2024-01-30T10:33:45;5.40;1.00
36924;DHT22;22841;50.252;18.688;2024-01-30T10:36:14;5.40;1.00
36924;DHT22;22841;50.252;18.688;2024-01-30T10:38:43;5.50;1.00
36924;DHT22;22841;50.252;18.688;2024-01-30T10:41:13;5.40;1.00
36924;DHT22;22841;50.252;18.688;2024-01-30T10:43:41;5.40;1.00
36924;DHT22;22841;50.252;18.688;2024-01-30T10:46:19;5.30;1.00
36924;DHT22;22841;50.252;18.688;2024-01-30T10:48:57;5.40;1.00
36924;DHT22;22841;50.252;18.688;2024-01-30T10:51:28;5.50;1.00
36924;DHT22;22841;50.252;18.688;2024-01-30T10:53:56;5.50;1.00
36924;DHT22;22841;50.252;18.688;2024-01-30T10:56:22;5.40;1.00
36924;DHT22;22841;50.252;18.688;2024-01-30T10:58:50;5.50;1.00
36924;DHT22;22841;50.252;18.688;2024-01-30T11:01:19;5.50;1.00
36924;DHT22;22841;50.252;18.688;2024-01-30T11:03:46;5.60;1.00
36924;DHT22;22841;50.252;18.688;2024-01-30T11:06:12;5.60;1.00
36924;DHT22;22841;50.252;18.688;2024-01-30T11:08:44;5.70;1.00
36924;DHT22;22841;50.252;18.688;2024-01-30T11:11:10;5.80;1.00
36924;DHT22;22841;50.252;18.688;2024-01-30T11:13:37;5.80;1.00
36924;DHT22;22841;50.252;18.688;2024-01-30T11:16:06;5.90;1.00
36924;DHT22;22841;50.252;18.688;2024-01-30T11:18:35;5.80;1.00
36924;DHT22;22841;50.252;18.688;2024-01-30T11:21:04;5.90;1.00
36924;DHT22;22841;50.252;18.688;2024-01-30T11:23:32;5.90;1.00
36924;DHT22;22841;50.252;18.688;2024-01-30T11:25:59;6.00;1.00
36924;DHT22;22841;50.252;18.688;2024-01-30T11:28:35;5.90;1.00
36924;DHT22;22841;50.252;18.688;2024-01-30T11:31:07;6.00;1.00
36924;DHT22;22841;50.252;18.688;2024-01-30T11:33:33;6.10;1.00
36924;DHT22;22841;50.252;18.688;2024-01-30T11:36:00;6.10;1.00
36924;DHT22;22841;50.252;18.688;2024-01-30T11:38:27;6.10;1.00
36924;DHT22;22841;50.252;18.688;2024-01-30T11:40:56;6.30;1.00
36924;DHT22;22841;50.252;18.688;2024-01-30T11:43:23;6.20;1.00
36924;DHT22;22841;50.252;18.688;2024-01-30T11:45:50;6.20;1.00
36924;DHT22;22841;50.252;18.688;2024-01-30T11:48:16;6.30;1.00
36924;DHT22;22841;50.252;18.688;2024-01-30T11:50:43;6.30;1.00
36924;DHT22;22841;50.252;18.688;2024-01-30T11:53:12;6.50;1.00
36924;DHT22;22841;50.252;18.688;2024-01-30T11:55:38;6.50;1.00
36924;DHT22;22841;50.252;18.688;2024-01-30T11:58:04;6.40;1.00
36924;DHT22;22841;50.252;18.688;2024-01-30T12:00:31;6.40;1.00
36924;DHT22;22841;50.252;18.688;2024-01-30T12:02:59;6.50;1.00
36924;DHT22;22841;50.252;18.688;2024-01-30T12:05:27;6.50;1.00
36924;DHT22;22841;50.252;18.688;2024-01-30T12:07:53;6.50;1.00
36924;DHT22;22841;50.252;18.688;2024-01-30T12:10:20;6.50;1.00
36924;DHT22;22841;50.252;18.688;2024-01-30T12:12:47;6.60;1.00
36924;DHT22;22841;50.252;18.688;2024-01-30T12:15:15;6.60;1.00
36924;DHT22;22841;50.252;18.688;2024-01-30T12:17:41;6.70;1.00
36924;DHT22;22841;50.252;18.688;2024-01-30T12:20:11;6.70;1.00
36924;DHT22;22841;50.252;18.688;2024-01-30T12:25:09;6.70;1.00
36924;DHT22;22841;50.252;18.688;2024-01-30T12:27:35;6.80;1.00
36924;DHT22;22841;50.252;18.688;2024-01-30T12:30:05;7.00;1.00
36924;DHT22;22841;50.252;18.688;2024-01-30T12:32:31;6.80;1.00
36924;DHT22;22841;50.252;18.688;2024-01-30T12:34:59;6.90;1.00
36924;DHT22;22841;50.252;18.688;2024-01-30T12:37:26;6.90;1.00
36924;DHT22;22841;50.252;18.688;2024-01-30T12:39:52;7.00;1.00
36924;DHT22;22841;50.252;18.688;2024-01-30T12:42:20;7.00;1.00
36924;DHT22;22841;50.252;18.688;2024-01-30T12:44:48;7.00;1.00
36924;DHT22;22841;50.252;18.688;2024-01-30T12:47:15;7.00;1.00
36924;DHT22;22841;50.252;18.688;2024-01-30T12:49:44;6.90;1.00
36924;DHT22;22841;50.252;18.688;2024-01-30T12:52:15;7.00;1.00
36924;DHT22;22841;50.252;18.688;2024-01-30T12:54:42;7.10;1.00
36924;DHT22;22841;50.252;18.688;2024-01-30T12:57:08;7.00;1.00
36924;DHT22;22841;50.252;18.688;2024-01-30T12:59:34;7.00;1.00
36924;DHT22;22841;50.252;18.688;2024-01-30T13:02:01;7.00;1.00
36924;DHT22;22841;50.252;18.688;2024-01-30T13:04:27;7.00;1.00
36924;DHT22;22841;50.252;18.688;2024-01-30T13:06:54;7.00;1.00
36924;DHT22;22841;50.252;18.688;2024-01-30T13:09:20;6.90;1.00
36924;DHT22;22841;50.252;18.688;2024-01-30T13:11:47;7.00;1.00
36924;DHT22;22841;50.252;18.688;2024-01-30T13:14:13;7.00;1.00
36924;DHT22;22841;50.252;18.688;2024-01-30T13:16:39;7.00;1.00
36924;DHT22;22841;50.252;18.688;2024-01-30T13:19:05;7.00;1.00
36924;DHT22;22841;50.252;18.688;2024-01-30T13:21:31;7.00;1.00
36924;DHT22;22841;50.252;18.688;2024-01-30T13:23:58;7.00;1.00
36924;DHT22;22841;50.252;18.688;2024-01-30T13:26:24;7.00;1.00
36924;DHT22;22841;50.252;18.688;2024-01-30T13:28:50;6.90;1.00
36924;DHT22;22841;50.252;18.688;2024-01-30T13:31:17;6.90;1.00
36924;DHT22;22841;50.252;18.688;2024-01-30T13:33:43;6.90;1.00
36924;DHT22;22841;50.252;18.688;2024-01-30T13:36:11;6.80;1.00
36924;DHT22;22841;50.252;18.688;2024-01-30T13:38:37;6.90;1.00
36924;DHT22;22841;50.252;18.688;2024-01-30T13:41:05;6.80;1.00
36924;DHT22;22841;50.252;18.688;2024-01-30T13:43:31;6.80;1.00
36924;DHT22;22841;50.252;18.688;2024-01-30T13:45:57;6.80;1.00
36924;DHT22;22841;50.252;18.688;2024-01-30T13:48:23;6.90;1.00
36924;DHT22;22841;50.252;18.688;2024-01-30T13:50:49;6.90;1.00
36924;DHT22;22841;50.252;18.688;2024-01-30T13:53:15;6.90;1.00
36924;DHT22;22841;50.252;18.688;2024-01-30T13:55:41;6.90;1.00
36924;DHT22;22841;50.252;18.688;2024-01-30T13:58:08;6.90;1.00
36924;DHT22;22841;50.252;18.688;2024-01-30T14:00:34;6.90;1.00
36924;DHT22;22841;50.252;18.688;2024-01-30T14:03:00;6.90;1.00
36924;DHT22;22841;50.252;18.688;2024-01-30T14:05:26;6.90;1.00
36924;DHT22;22841;50.252;18.688;2024-01-30T14:07:56;6.90;1.00
36924;DHT22;22841;50.252;18.688;2024-01-30T14:10:23;6.90;1.00
36924;DHT22;22841;50.252;18.688;2024-01-30T14:12:49;6.90;1.00
36924;DHT22;22841;50.252;18.688;2024-01-30T14:15:16;6.90;1.00
36924;DHT22;22841;50.252;18.688;2024-01-30T14:17:45;6.90;1.00
36924;DHT22;22841;50.252;18.688;2024-01-30T14:20:14;6.90;1.00
36924;DHT22;22841;50.252;18.688;2024-01-30T14:22:42;6.80;1.00
36924;DHT22;22841;50.252;18.688;2024-01-30T14:25:08;6.80;1.00
36924;DHT22;22841;50.252;18.688;2024-01-30T14:27:35;6.70;1.00
36924;DHT22;22841;50.252;18.688;2024-01-30T14:30:02;6.60;1.00
36924;DHT22;22841;50.252;18.688;2024-01-30T14:32:29;6.60;1.00
36924;DHT22;22841;50.252;18.688;2024-01-30T14:34:55;6.40;1.00
36924;DHT22;22841;50.252;18.688;2024-01-30T14:37:21;6.40;1.00
36924;DHT22;22841;50.252;18.688;2024-01-30T14:39:47;6.30;1.00
36924;DHT22;22841;50.252;18.688;2024-01-30T14:42:16;6.20;1.00
36924;DHT22;22841;50.252;18.688;2024-01-30T14:44:42;6.20;1.00
36924;DHT22;22841;50.252;18.688;2024-01-30T14:47:09;6.20;1.00
36924;DHT22;22841;50.252;18.688;2024-01-30T14:49:35;6.10;1.00
36924;DHT22;22841;50.252;18.688;2024-01-30T14:52:01;6.10;1.00
36924;DHT22;22841;50.252;18.688;2024-01-30T14:54:30;5.90;1.00
36924;DHT22;22841;50.252;18.688;2024-01-30T14:56:56;5.90;1.00
36924;DHT22;22841;50.252;18.688;2024-01-30T14:59:22;5.80;1.00
36924;DHT22;22841;50.252;18.688;2024-01-30T15:01:48;5.70;1.00
36924;DHT22;22841;50.252;18.688;2024-01-30T15:04:15;5.70;1.00
36924;DHT22;22841;50.252;18.688;2024-01-30T15:06:41;5.60;1.00
36924;DHT22;22841;50.252;18.688;2024-01-30T15:09:12;5.60;1.00
36924;DHT22;22841;50.252;18.688;2024-01-30T15:11:41;5.50;1.00
36924;DHT22;22841;50.252;18.688;2024-01-30T15:14:07;5.40;1.00
36924;DHT22;22841;50.252;18.688;2024-01-30T15:16:34;5.40;1.00
36924;DHT22;22841;50.252;18.688;2024-01-30T15:19:00;5.40;1.00
36924;DHT22;22841;50.252;18.688;2024-01-30T15:21:26;5.30;1.00
36924;DHT22;22841;50.252;18.688;2024-01-30T15:23:52;5.20;1.00
36924;DHT22;22841;50.252;18.688;2024-01-30T15:26:18;5.10;1.00
36924;DHT22;22841;50.252;18.688;2024-01-30T15:28:44;5.10;1.00
36924;DHT22;22841;50.252;18.688;2024-01-30T15:31:10;5.00;1.00
36924;DHT22;22841;50.252;18.688;2024-01-30T15:33:36;4.90;1.00
36924;DHT22;22841;50.252;18.688;2024-01-30T15:36:03;4.90;1.00
36924;DHT22;22841;50.252;18.688;2024-01-30T15:38:29;4.90;1.00
36924;DHT22;22841;50.252;18.688;2024-01-30T15:40:55;4.80;1.00
36924;DHT22;22841;50.252;18.688;2024-01-30T15:43:22;4.80;1.00
36924;DHT22;22841;50.252;18.688;2024-01-30T15:45:49;4.70;1.00
36924;DHT22;22841;50.252;18.688;2024-01-30T15:48:19;4.70;1.00
36924;DHT22;22841;50.252;18.688;2024-01-30T15:50:46;4.60;1.00
36924;DHT22;22841;50.252;18.688;2024-01-30T15:53:12;4.50;1.90
36924;DHT22;22841;50.252;18.688;2024-01-30T15:55:38;4.50;1.00
36924;DHT22;22841;50.252;18.688;2024-01-30T15:58:04;4.40;1.00
36924;DHT22;22841;50.252;18.688;2024-01-30T16:00:31;4.40;1.00
36924;DHT22;22841;50.252;18.688;2024-01-30T16:02:58;4.30;4.90
36924;DHT22;22841;50.252;18.688;2024-01-30T16:05:24;4.30;1.00
36924;DHT22;22841;50.252;18.688;2024-01-30T16:07:50;4.30;1.00
36924;DHT22;22841;50.252;18.688;2024-01-30T16:10:16;4.40;1.00
36924;DHT22;22841;50.252;18.688;2024-01-30T16:12:44;4.40;1.00
36924;DHT22;22841;50.252;18.688;2024-01-30T16:15:13;4.50;1.00
36924;DHT22;22841;50.252;18.688;2024-01-30T16:17:39;4.50;1.00
36924;DHT22;22841;50.252;18.688;2024-01-30T16:20:06;4.50;1.00
36924;DHT22;22841;50.252;18.688;2024-01-30T16:22:32;4.50;1.00
36924;DHT22;22841;50.252;18.688;2024-01-30T16:24:58;4.50;1.00
36924;DHT22;22841;50.252;18.688;2024-01-30T16:27:24;4.60;1.00
36924;DHT22;22841;50.252;18.688;2024-01-30T16:29:50;4.40;1.00
36924;DHT22;22841;50.252;18.688;2024-01-30T16:32:16;4.40;1.00
36924;DHT22;22841;50.252;18.688;2024-01-30T16:34:42;4.40;1.00
36924;DHT22;22841;50.252;18.688;2024-01-30T16:37:10;4.50;1.00
36924;DHT22;22841;50.252;18.688;2024-01-30T16:39:36;4.40;1.00
36924;DHT22;22841;50.252;18.688;2024-01-30T16:44:50;4.40;1.00
36924;DHT22;22841;50.252;18.688;2024-01-30T16:47:48;4.40;1.00
36924;DHT22;22841;50.252;18.688;2024-01-30T16:50:14;4.30;1.00
36924;DHT22;22841;50.252;18.688;2024-01-30T16:52:40;4.40;1.00
36924;DHT22;22841;50.252;18.688;2024-01-30T16:55:06;4.40;1.00
36924;DHT22;22841;50.252;18.688;2024-01-30T16:57:32;4.40;1.00
36924;DHT22;22841;50.252;18.688;2024-01-30T16:59:58;4.30;1.00
36924;DHT22;22841;50.252;18.688;2024-01-30T23:35:55;3.10;1.00
36924;DHT22;22841;50.252;18.688;2024-01-30T23:51:34;3.00;1.00
36924;DHT22;22841;50.252;18.688;2024-01-30T23:54:00;2.90;1.00
